createdAt,value
2023-05-21T00:01:53.970Z,100.00
2023-05-21T00:04:21.956Z,100.00
2023-05-21T00:06:51.669Z,100.00
2023-05-21T00:09:19.627Z,100.00
2023-05-21T00:11:47.571Z,100.00
2023-05-21T00:14:15.498Z,100.00
2023-05-21T00:16:47.100Z,100.00
2023-05-21T00:19:16.188Z,100.00
2023-05-21T00:21:46.029Z,100.00
2023-05-21T00:24:14.300Z,100.00
2023-05-21T00:26:42.349Z,100.00
2023-05-21T00:29:10.474Z,100.00
2023-05-21T00:31:38.487Z,100.00
2023-05-21T00:34:11.122Z,100.00
2023-05-21T00:36:40.500Z,100.00
2023-05-21T00:39:08.978Z,100.00
2023-05-21T00:41:38.398Z,100.00
2023-05-21T00:44:07.056Z,100.00
2023-05-21T00:46:36.715Z,100.00
2023-05-21T00:49:10.458Z,100.00
2023-05-21T00:51:40.277Z,100.00
2023-05-21T00:54:10.293Z,100.00
2023-05-21T00:56:38.670Z,100.00
2023-05-21T00:59:06.750Z,100.00
2023-05-21T01:01:37.002Z,100.00
2023-05-21T01:04:06.248Z,100.00
2023-05-21T01:06:35.604Z,100.00
2023-05-21T01:09:06.486Z,100.00
2023-05-21T01:11:40.306Z,100.00
2023-05-21T01:14:10.192Z,100.00
2023-05-21T01:16:39.403Z,100.00
2023-05-21T01:19:10.301Z,100.00
2023-05-21T01:21:42.573Z,100.00
2023-05-21T01:24:12.027Z,100.00
2023-05-21T01:26:42.810Z,100.00
2023-05-21T01:29:13.357Z,100.00
2023-05-21T01:31:55.518Z,100.00
2023-05-21T01:34:28.730Z,100.00
2023-05-21T01:37:02.327Z,100.00
2023-05-21T01:39:38.597Z,100.00
2023-05-21T01:42:11.674Z,100.00
2023-05-21T01:44:41.298Z,100.00
2023-05-21T01:47:11.232Z,100.00
2023-05-21T01:49:39.565Z,100.00
2023-05-21T01:52:08.222Z,100.00
2023-05-21T01:54:37.906Z,100.00
2023-05-21T01:57:07.005Z,100.00
2023-05-21T01:59:35.468Z,100.00
2023-05-21T02:02:03.653Z,100.00
2023-05-21T02:04:31.810Z,100.00
2023-05-21T02:06:59.834Z,100.00
2023-05-21T02:09:27.765Z,100.00
2023-05-21T02:11:57.258Z,100.00
2023-05-21T02:14:25.560Z,100.00
2023-05-21T02:16:53.660Z,100.00
2023-05-21T02:19:21.771Z,100.00
2023-05-21T02:21:49.808Z,100.00
2023-05-21T02:24:17.957Z,100.00
2023-05-21T02:26:47.253Z,100.00
2023-05-21T02:29:16.566Z,100.00
2023-05-21T02:31:44.549Z,100.00
2023-05-21T02:34:12.718Z,100.00
2023-05-21T02:36:41.739Z,100.00
2023-05-21T02:39:09.707Z,100.00
2023-05-21T02:41:38.251Z,100.00
2023-05-21T02:44:06.429Z,100.00
2023-05-21T02:46:35.836Z,100.00
2023-05-21T02:49:04.140Z,100.00
2023-05-21T02:51:32.137Z,100.00
2023-05-21T02:54:00.121Z,100.00
2023-05-21T02:56:28.167Z,100.00
2023-05-21T02:58:56.171Z,100.00
2023-05-21T03:01:24.226Z,100.00
2023-05-21T03:03:53.574Z,100.00
2023-05-21T03:06:22.596Z,100.00
2023-05-21T03:08:50.599Z,100.00
2023-05-21T03:11:21.112Z,100.00
2023-05-21T03:13:49.201Z,100.00
2023-05-21T03:16:17.704Z,100.00
2023-05-21T03:18:46.156Z,100.00
2023-05-21T03:21:15.830Z,100.00
2023-05-21T03:23:43.810Z,100.00
2023-05-21T03:26:11.833Z,100.00
2023-05-21T03:28:39.767Z,100.00
2023-05-21T03:31:07.705Z,100.00
2023-05-21T03:33:36.162Z,100.00
2023-05-21T03:36:04.260Z,100.00
2023-05-21T03:38:35.368Z,100.00
2023-05-21T03:41:04.537Z,100.00
2023-05-21T03:43:32.571Z,100.00
2023-05-21T03:46:00.775Z,100.00
2023-05-21T03:48:28.939Z,100.00
2023-05-21T03:50:57.501Z,100.00
2023-05-21T03:53:25.846Z,100.00
2023-05-21T03:55:56.114Z,100.00
2023-05-21T03:58:24.378Z,100.00
2023-05-21T04:00:52.386Z,100.00
2023-05-21T04:03:20.555Z,100.00
2023-05-21T04:05:49.491Z,100.00
2023-05-21T04:08:17.532Z,100.00
2023-05-21T04:10:47.935Z,100.00
2023-05-21T04:13:17.452Z,100.00
2023-05-21T04:15:46.901Z,100.00
2023-05-21T04:18:16.423Z,100.00
2023-05-21T04:20:44.560Z,100.00
2023-05-21T04:23:12.556Z,100.00
2023-05-21T04:25:40.605Z,100.00
2023-05-21T04:28:08.625Z,100.00
2023-05-21T04:30:38.060Z,100.00
2023-05-21T04:33:06.697Z,100.00
2023-05-21T04:35:35.632Z,100.00
2023-05-21T04:38:05.729Z,100.00
2023-05-21T04:40:34.081Z,100.00
2023-05-21T04:43:04.864Z,100.00
2023-05-21T04:45:32.830Z,100.00
2023-05-21T04:48:03.053Z,100.00
2023-05-21T04:50:31.795Z,100.00
2023-05-21T04:53:00.034Z,100.00
2023-05-21T04:55:29.042Z,100.00
2023-05-21T04:57:57.468Z,100.00
2023-05-21T05:00:26.238Z,100.00
2023-05-21T05:02:54.309Z,100.00
2023-05-21T05:05:23.879Z,100.00
2023-05-21T05:07:51.931Z,100.00
2023-05-21T05:10:19.924Z,100.00
2023-05-21T05:12:47.893Z,100.00
2023-05-21T05:15:16.086Z,100.00
2023-05-21T05:17:44.180Z,100.00
2023-05-21T05:20:12.974Z,100.00
2023-05-21T05:22:42.373Z,100.00
2023-05-21T05:25:10.756Z,100.00
2023-05-21T05:27:38.820Z,100.00
2023-05-21T05:30:08.159Z,100.00
2023-05-21T05:32:36.684Z,100.00
2023-05-21T05:35:05.336Z,100.00
2023-05-21T05:37:34.160Z,100.00
2023-05-21T05:40:04.418Z,100.00
2023-05-21T05:42:32.472Z,100.00
2023-05-21T05:45:00.579Z,100.00
2023-05-21T05:47:28.616Z,100.00
2023-05-21T05:49:56.601Z,100.00
2023-05-21T05:52:24.519Z,100.00
2023-05-21T05:54:52.443Z,100.00
2023-05-21T05:57:22.256Z,100.00
2023-05-21T05:59:50.232Z,100.00
2023-05-21T06:02:18.288Z,100.00
2023-05-21T06:04:46.415Z,100.00
2023-05-21T06:07:14.561Z,96.93
2023-05-21T06:09:42.573Z,98.89
2023-05-21T06:12:14.739Z,98.44
2023-05-21T06:14:49.142Z,94.67
2023-05-21T06:17:17.095Z,87.87
2023-05-21T06:19:46.144Z,88.52
2023-05-21T06:22:14.221Z,83.85
2023-05-21T06:24:42.281Z,78.11
2023-05-21T06:27:10.359Z,71.72
2023-05-21T06:29:38.505Z,71.50
2023-05-21T06:32:09.263Z,72.26
2023-05-21T06:34:37.773Z,70.67
2023-05-21T06:37:06.434Z,69.57
2023-05-21T06:39:34.624Z,67.92
2023-05-21T06:42:02.794Z,68.75
2023-05-21T06:44:30.875Z,67.36
2023-05-21T06:46:59.037Z,68.16
2023-05-21T06:49:28.370Z,67.51
2023-05-21T06:51:56.321Z,66.37
2023-05-21T06:54:26.685Z,64.67
2023-05-21T06:56:55.062Z,65.59
2023-05-21T06:59:23.093Z,65.21
2023-05-21T07:01:53.374Z,66.50
2023-05-21T07:04:22.172Z,62.80
2023-05-21T07:06:54.602Z,63.42
2023-05-21T07:09:22.613Z,63.82
2023-05-21T07:11:53.072Z,65.95
2023-05-21T07:14:21.267Z,67.11
2023-05-21T07:16:49.322Z,68.03
2023-05-21T07:19:17.617Z,67.59
2023-05-21T07:21:45.786Z,65.40
2023-05-21T07:24:15.210Z,65.52
2023-05-21T07:26:43.695Z,65.65
2023-05-21T07:29:11.652Z,66.35
2023-05-21T07:31:39.838Z,66.42
2023-05-21T07:34:08.490Z,66.43
2023-05-21T07:36:37.156Z,63.72
2023-05-21T07:39:05.321Z,61.87
2023-05-21T07:41:34.630Z,61.48
2023-05-21T07:44:02.811Z,59.03
2023-05-21T07:46:30.932Z,57.41
2023-05-21T07:48:58.948Z,56.93
2023-05-21T07:51:27.542Z,55.32
2023-05-21T07:53:56.513Z,52.41
2023-05-21T07:56:24.738Z,47.82
2023-05-21T07:58:54.132Z,46.41
2023-05-21T08:01:22.354Z,46.52
2023-05-21T08:03:50.525Z,47.54
2023-05-21T08:06:18.723Z,46.84
2023-05-21T08:08:47.012Z,45.61
2023-05-21T08:11:15.023Z,45.89
2023-05-21T08:13:42.964Z,47.04
2023-05-21T08:16:12.470Z,47.53
2023-05-21T08:18:41.349Z,46.30
2023-05-21T08:21:09.551Z,45.33
2023-05-21T08:23:37.528Z,46.23
2023-05-21T08:26:07.068Z,46.42
2023-05-21T08:28:35.708Z,44.87
2023-05-21T08:31:03.726Z,43.69
2023-05-21T08:33:33.109Z,41.79
2023-05-21T08:36:01.432Z,43.84
2023-05-21T08:38:30.392Z,43.30
2023-05-21T08:40:59.769Z,44.10
2023-05-21T08:43:29.438Z,44.05
2023-05-21T08:46:01.718Z,44.59
2023-05-21T08:48:31.865Z,44.24
2023-05-21T08:51:01.682Z,44.63
2023-05-21T08:53:30.042Z,42.72
2023-05-21T08:55:58.370Z,42.52
2023-05-21T08:58:26.415Z,41.51
2023-05-21T09:00:56.311Z,42.54
2023-05-21T09:03:25.515Z,41.49
2023-05-21T09:05:55.196Z,40.70
2023-05-21T09:08:31.150Z,39.57
2023-05-21T09:10:59.096Z,40.78
2023-05-21T09:13:30.328Z,41.20
2023-05-21T09:15:58.402Z,40.12
2023-05-21T09:18:27.671Z,39.76
2023-05-21T09:20:56.910Z,41.20
2023-05-21T09:23:29.845Z,41.16
2023-05-21T09:25:58.514Z,41.86
2023-05-21T09:28:26.812Z,41.85
2023-05-21T09:30:54.825Z,42.69
2023-05-21T09:33:26.987Z,41.36
2023-05-21T09:35:55.544Z,42.22
2023-05-21T09:38:24.316Z,41.11
2023-05-21T09:40:56.395Z,40.03
2023-05-21T09:43:24.696Z,41.17
2023-05-21T09:45:53.728Z,40.60
2023-05-21T09:48:34.776Z,38.59
2023-05-21T09:51:14.318Z,38.56
2023-05-21T09:53:49.657Z,37.90
2023-05-21T09:56:22.448Z,37.68
2023-05-21T09:58:52.521Z,37.19
2023-05-21T10:01:21.389Z,36.86
2023-05-21T10:03:55.628Z,36.21
2023-05-21T10:06:26.476Z,36.85
2023-05-21T10:08:57.583Z,36.63
2023-05-21T10:11:29.639Z,35.89
2023-05-21T10:14:03.263Z,36.22
2023-05-21T10:16:34.446Z,37.11
2023-05-21T10:19:02.778Z,39.08
2023-05-21T10:21:31.938Z,39.64
2023-05-21T10:24:01.556Z,39.97
2023-05-21T10:26:31.720Z,41.40
2023-05-21T10:29:01.000Z,41.60
2023-05-21T10:31:29.693Z,40.61
2023-05-21T10:33:57.921Z,40.69
2023-05-21T10:36:26.134Z,40.58
2023-05-21T10:38:55.345Z,40.98
2023-05-21T10:41:24.808Z,41.12
2023-05-21T10:44:03.916Z,43.61
2023-05-21T10:47:00.629Z,44.58
2023-05-21T10:49:45.811Z,44.35
2023-05-21T10:52:26.226Z,43.77
2023-05-21T10:55:24.607Z,43.23
2023-05-21T10:58:12.136Z,42.66
2023-05-21T11:00:43.712Z,43.85
2023-05-21T11:03:14.241Z,44.39
2023-05-21T11:05:43.354Z,45.34
2023-05-21T11:08:23.821Z,45.83
2023-05-21T11:10:58.063Z,45.63
2023-05-21T11:13:27.213Z,46.53
2023-05-21T11:16:15.906Z,46.30
2023-05-21T11:19:02.486Z,46.61
2023-05-21T11:21:32.342Z,46.29
2023-05-21T11:24:06.549Z,45.02
2023-05-21T11:27:04.885Z,44.24
2023-05-21T11:29:48.475Z,45.31
2023-05-21T11:32:20.781Z,45.73
2023-05-21T11:34:49.768Z,46.27
2023-05-21T11:37:27.697Z,46.61
2023-05-21T11:39:56.665Z,46.82
2023-05-21T11:42:32.524Z,47.23
2023-05-21T11:45:02.176Z,47.20
2023-05-21T11:47:33.325Z,47.28
2023-05-21T11:50:02.659Z,47.35
2023-05-21T11:52:31.834Z,48.15
2023-05-21T11:55:00.072Z,47.79
2023-05-21T11:57:31.352Z,47.46
2023-05-21T12:00:01.459Z,48.35
2023-05-21T12:02:34.469Z,49.14
2023-05-21T12:05:02.595Z,49.92
2023-05-21T12:07:31.285Z,50.45
2023-05-21T12:09:59.831Z,51.00
2023-05-21T12:12:38.572Z,51.17
2023-05-21T12:15:12.663Z,52.20
2023-05-21T12:17:42.454Z,52.46
2023-05-21T12:20:16.703Z,53.47
2023-05-21T12:22:45.947Z,53.82
2023-05-21T12:25:14.298Z,53.82
2023-05-21T12:27:45.189Z,54.36
2023-05-21T12:30:13.671Z,54.37
2023-05-21T12:32:45.312Z,54.38
2023-05-21T12:35:24.290Z,52.80
2023-05-21T12:37:53.260Z,52.77
2023-05-21T12:40:22.430Z,52.34
2023-05-21T12:42:51.866Z,52.94
2023-05-21T12:45:22.818Z,53.10
2023-05-21T12:47:56.588Z,53.56
2023-05-21T12:50:24.898Z,53.82
2023-05-21T12:52:56.388Z,53.98
2023-05-21T12:55:26.347Z,54.80
2023-05-21T12:58:03.928Z,55.87
2023-05-21T13:00:33.479Z,56.31
2023-05-21T13:03:04.814Z,57.44
2023-05-21T13:05:32.998Z,56.45
2023-05-21T13:08:00.990Z,57.05
2023-05-21T13:10:29.036Z,58.12
2023-05-21T13:12:57.077Z,59.34
2023-05-21T13:15:25.123Z,59.50
2023-05-21T13:17:55.094Z,59.10
2023-05-21T13:20:27.806Z,58.94
2023-05-21T13:22:56.279Z,61.12
2023-05-21T13:25:29.058Z,65.48
2023-05-21T13:27:58.219Z,67.67
2023-05-21T13:30:26.943Z,66.60
2023-05-21T13:32:55.316Z,65.60
2023-05-21T13:35:23.318Z,64.39
2023-05-21T13:37:52.841Z,63.10
2023-05-21T13:40:21.752Z,61.88
2023-05-21T13:42:51.177Z,59.75
2023-05-21T13:45:28.973Z,59.79
2023-05-21T13:47:57.395Z,58.72
2023-05-21T13:50:26.396Z,58.57
2023-05-21T13:52:55.984Z,57.95
2023-05-21T13:55:24.153Z,57.63
2023-05-21T13:57:52.247Z,57.82
2023-05-21T14:00:20.375Z,57.66
2023-05-21T14:02:48.581Z,58.62
2023-05-21T14:05:16.700Z,60.07
2023-05-21T14:07:45.499Z,59.66
2023-05-21T14:10:15.072Z,60.37
2023-05-21T14:12:43.159Z,63.27
2023-05-21T14:15:12.019Z,66.65
2023-05-21T14:17:40.715Z,75.67
2023-05-21T14:20:10.383Z,81.34
2023-05-21T14:22:39.524Z,80.41
2023-05-21T14:25:08.255Z,80.60
2023-05-21T14:27:38.997Z,82.60
2023-05-21T14:30:08.174Z,84.44
2023-05-21T14:32:37.092Z,87.56
2023-05-21T14:35:06.353Z,89.96
2023-05-21T14:37:34.295Z,92.43
2023-05-21T14:40:02.518Z,92.97
2023-05-21T14:42:30.840Z,89.74
2023-05-21T14:45:16.993Z,89.53
2023-05-21T14:47:47.781Z,92.62
2023-05-21T14:50:17.493Z,91.70
2023-05-21T14:52:45.606Z,90.82
2023-05-21T14:55:13.985Z,91.17
2023-05-21T14:57:41.972Z,90.00
2023-05-21T15:00:13.404Z,88.59
2023-05-21T15:02:41.661Z,89.51
2023-05-21T15:05:10.016Z,83.01
2023-05-21T15:07:38.146Z,78.65
2023-05-21T15:10:07.051Z,77.29
2023-05-21T15:12:35.028Z,75.12
2023-05-21T15:15:03.140Z,72.78
2023-05-21T15:17:33.456Z,70.48
2023-05-21T15:20:04.415Z,69.92
2023-05-21T15:22:32.581Z,67.87
2023-05-21T15:25:01.112Z,67.28
2023-05-21T15:27:29.283Z,67.83
2023-05-21T15:29:57.423Z,67.58
2023-05-21T15:32:25.953Z,66.82
2023-05-21T15:34:56.042Z,66.49
2023-05-21T15:37:24.152Z,66.22
2023-05-21T15:39:53.439Z,64.64
2023-05-21T15:42:21.541Z,65.40
2023-05-21T15:44:49.859Z,66.17
2023-05-21T15:47:17.884Z,66.00
2023-05-21T15:49:46.091Z,66.14
2023-05-21T15:52:15.518Z,65.85
2023-05-21T15:54:43.492Z,66.11
2023-05-21T15:57:11.623Z,66.63
2023-05-21T15:59:40.052Z,66.01
2023-05-21T16:02:08.901Z,66.13
2023-05-21T16:04:37.851Z,63.32
2023-05-21T16:07:06.390Z,61.09
2023-05-21T16:09:37.709Z,60.23
2023-05-21T16:12:07.598Z,60.51
2023-05-21T16:14:35.752Z,59.58
2023-05-21T16:17:03.953Z,59.45
2023-05-21T16:19:32.599Z,60.06
2023-05-21T16:22:02.154Z,60.08
2023-05-21T16:24:30.390Z,61.03
2023-05-21T16:26:59.782Z,61.60
2023-05-21T16:29:27.841Z,61.77
2023-05-21T16:31:55.938Z,62.31
2023-05-21T16:34:24.599Z,62.72
2023-05-21T16:36:52.933Z,62.55
2023-05-21T16:39:21.071Z,62.64
2023-05-21T16:41:49.242Z,63.34
2023-05-21T16:44:20.349Z,63.79
2023-05-21T16:46:48.328Z,63.85
2023-05-21T16:49:16.425Z,64.76
2023-05-21T16:51:44.561Z,65.44
2023-05-21T16:54:12.639Z,66.29
2023-05-21T16:56:40.695Z,66.79
2023-05-21T16:59:08.743Z,66.64
2023-05-21T17:01:38.213Z,67.02
2023-05-21T17:04:06.725Z,67.36
2023-05-21T17:06:34.950Z,68.21
2023-05-21T17:09:03.671Z,68.21
2023-05-21T17:11:32.013Z,68.80
2023-05-21T17:14:00.094Z,68.52
2023-05-21T17:16:28.157Z,68.86
2023-05-21T17:18:57.750Z,68.56
2023-05-21T17:21:26.755Z,68.59
2023-05-21T17:23:54.827Z,68.70
2023-05-21T17:26:23.219Z,69.24
2023-05-21T17:28:51.375Z,69.31
2023-05-21T17:31:19.510Z,69.15
2023-05-21T17:33:48.019Z,69.42
2023-05-21T17:36:17.585Z,69.78
2023-05-21T17:38:45.611Z,69.85
2023-05-21T17:41:14.954Z,69.32
2023-05-21T17:43:43.559Z,68.85
2023-05-21T17:46:11.620Z,69.52
2023-05-21T17:48:39.838Z,69.73
2023-05-21T17:51:07.787Z,69.81
2023-05-21T17:53:37.365Z,70.51
2023-05-21T17:56:05.840Z,70.24
2023-05-21T17:58:33.910Z,70.25
2023-05-21T18:01:02.837Z,70.48
2023-05-21T18:03:31.241Z,71.82
2023-05-21T18:05:59.161Z,72.70
2023-05-21T18:08:27.096Z,73.10
2023-05-21T18:10:57.104Z,73.34
2023-05-21T18:13:25.189Z,74.10
2023-05-21T18:15:53.332Z,74.58
2023-05-21T18:18:21.724Z,75.26
2023-05-21T18:20:50.260Z,76.03
2023-05-21T18:24:01.640Z,76.87
2023-05-21T18:26:31.469Z,76.79
2023-05-21T18:29:02.671Z,76.74
2023-05-21T18:31:30.724Z,77.03
2023-05-21T18:33:59.507Z,77.33
2023-05-21T18:36:30.433Z,77.65
2023-05-21T18:38:58.536Z,78.13
2023-05-21T18:41:26.878Z,78.50
2023-05-21T18:43:56.398Z,79.45
2023-05-21T18:46:24.546Z,80.13
2023-05-21T18:48:52.634Z,79.54
2023-05-21T18:51:20.868Z,79.09
2023-05-21T18:53:49.129Z,78.95
2023-05-21T18:56:17.159Z,80.00
2023-05-21T18:58:45.175Z,80.75
2023-05-21T19:01:14.739Z,80.81
2023-05-21T19:03:42.820Z,82.31
2023-05-21T19:06:11.941Z,84.61
2023-05-21T19:08:41.384Z,84.87
2023-05-21T19:11:09.626Z,84.61
2023-05-21T19:13:37.796Z,85.02
2023-05-21T19:16:10.954Z,84.46
2023-05-21T19:18:43.330Z,84.05
2023-05-21T19:21:11.816Z,83.57
2023-05-21T19:23:51.996Z,83.39
2023-05-21T19:26:21.564Z,83.20
2023-05-21T19:28:53.645Z,82.82
2023-05-21T19:31:24.773Z,82.75
2023-05-21T19:33:54.810Z,82.78
2023-05-21T19:36:23.043Z,82.53
2023-05-21T19:38:52.074Z,82.42
2023-05-21T19:41:22.695Z,82.37
2023-05-21T19:43:53.144Z,82.51
2023-05-21T19:46:23.899Z,82.56
2023-05-21T19:48:53.511Z,82.59
2023-05-21T19:51:21.563Z,81.81
2023-05-21T19:53:49.614Z,82.20
2023-05-21T19:56:20.048Z,84.39
2023-05-21T19:58:48.174Z,87.10
2023-05-21T20:01:17.462Z,88.96
2023-05-21T20:03:46.264Z,91.07
2023-05-21T20:06:19.174Z,91.90
2023-05-21T20:08:48.088Z,92.48
2023-05-21T20:11:16.708Z,92.68
2023-05-21T20:13:50.184Z,92.82
2023-05-21T20:16:19.031Z,93.42
2023-05-21T20:18:50.037Z,93.64
2023-05-21T20:21:21.567Z,93.61
2023-05-21T20:23:50.051Z,94.00
2023-05-21T20:26:19.877Z,95.26
2023-05-21T20:28:48.012Z,95.96
2023-05-21T20:31:19.105Z,95.82
2023-05-21T20:33:50.697Z,96.72
2023-05-21T20:36:22.100Z,97.66
2023-05-21T20:38:52.406Z,97.60
2023-05-21T20:41:20.713Z,97.57
2023-05-21T20:43:49.112Z,98.96
2023-05-21T20:46:18.641Z,98.60
2023-05-21T20:48:47.439Z,99.08
2023-05-21T20:51:15.711Z,99.69
2023-05-21T20:53:47.749Z,100.00
2023-05-21T20:56:26.731Z,99.69
2023-05-21T20:59:01.963Z,100.00
2023-05-21T21:01:31.363Z,100.00
2023-05-21T21:03:59.479Z,100.00
2023-05-21T21:06:30.267Z,100.00
2023-05-21T21:09:00.490Z,100.00
2023-05-21T21:11:28.696Z,100.00
2023-05-21T21:13:56.914Z,100.00
2023-05-21T21:16:25.687Z,100.00
2023-05-21T21:18:55.824Z,100.00
2023-05-21T21:21:24.051Z,100.00
2023-05-21T21:23:52.116Z,100.00
2023-05-21T21:26:22.043Z,100.00
2023-05-21T21:28:50.305Z,100.00
2023-05-21T21:31:19.846Z,100.00
2023-05-21T21:33:48.414Z,100.00
2023-05-21T21:36:16.405Z,100.00
2023-05-21T21:38:44.419Z,100.00
2023-05-21T21:41:13.260Z,100.00
2023-05-21T21:43:42.576Z,100.00
2023-05-21T21:46:10.612Z,100.00
2023-05-21T21:48:39.105Z,100.00
2023-05-21T21:51:08.220Z,100.00
2023-05-21T21:53:36.242Z,100.00
2023-05-21T21:56:04.226Z,100.00
2023-05-21T21:58:32.412Z,100.00
2023-05-21T22:01:01.831Z,100.00
2023-05-21T22:03:33.065Z,100.00
2023-05-21T22:06:01.043Z,100.00
2023-05-21T22:08:29.102Z,100.00
2023-05-21T22:10:57.021Z,100.00
2023-05-21T22:13:26.979Z,100.00
2023-05-21T22:15:57.473Z,100.00
2023-05-21T22:18:39.570Z,100.00
2023-05-21T22:21:09.735Z,100.00
2023-05-21T22:23:38.497Z,100.00
2023-05-21T22:26:06.733Z,100.00
2023-05-21T22:28:34.914Z,100.00
2023-05-21T22:31:03.121Z,100.00
2023-05-21T22:33:33.004Z,100.00
2023-05-21T22:36:01.092Z,100.00
2023-05-21T22:38:29.107Z,100.00
2023-05-21T22:40:57.293Z,100.00
2023-05-21T22:43:26.277Z,100.00
2023-05-21T22:45:54.367Z,100.00
2023-05-21T22:48:23.070Z,100.00
2023-05-21T22:50:53.489Z,100.00
2023-05-21T22:53:21.788Z,100.00
2023-05-21T22:55:50.099Z,100.00
2023-05-21T22:58:18.579Z,100.00
2023-05-21T23:00:48.092Z,100.00
2023-05-21T23:03:16.460Z,100.00
2023-05-21T23:05:45.280Z,100.00
2023-05-21T23:08:15.272Z,100.00
2023-05-21T23:10:43.452Z,100.00
2023-05-21T23:13:12.919Z,100.00
2023-05-21T23:15:43.848Z,100.00
2023-05-21T23:18:12.606Z,100.00
2023-05-21T23:20:41.944Z,100.00
2023-05-21T23:23:10.672Z,100.00
2023-05-21T23:25:40.034Z,100.00
2023-05-21T23:28:08.011Z,100.00
2023-05-21T23:30:36.128Z,100.00
2023-05-21T23:33:04.814Z,100.00
2023-05-21T23:35:32.865Z,100.00
2023-05-21T23:38:00.796Z,100.00
2023-05-21T23:40:28.897Z,100.00
2023-05-21T23:42:58.414Z,100.00
2023-05-21T23:45:26.437Z,100.00
2023-05-21T23:47:54.517Z,100.00
2023-05-21T23:50:22.604Z,100.00
2023-05-21T23:52:50.553Z,100.00
2023-05-21T23:55:18.772Z,100.00
2023-05-21T23:57:46.763Z,100.00
